Página principal
METAR-TAF:

METAR-TAF

Aeroportos :

Saint-Louis, Senegal

latitude: 16-03N, longitude: 016-27W, altura: 4 m

Observação actual do tempo

O boletim foi feito há 1 hora e 5 minutos, às 11:00 UTC
Vento 8 kt de este, variando entre norte e su-sudeste
Temperatura 36°C
Humidade 16%
Pressão 1014 hPa

METAR: GOSS 151100Z 08008KT 010V150 NSC 36/06 Q1014

Hora: 12:05 (12:05 UTC)

Previsão

O boletim foi feito há 1 hora e 5 minutos, às 11:00 UTC
Previsão válida de 15 às 12 UTC a 16 às 12 UTC
Vento 10 kt de este
Visibilidade: 7000 m
Tornando-se
de 15 às 18 UTC a 15 às 20 UTC
Vento 8 kt de nor-noroeste

TAF: GOSS 151100Z 1512/1612 08010KT 7000 NSC BECMG 1518/1520 34008KT

Observações e previsões do tempo de mais de 4000 aeroportos (mensagens METAR e TAF).

As estações disponíveis são os pontos amarelos e vermelhos sobre o mapa.

Mova o rato sobre o mapa para ver o nome da estação.

Depois clique no ponto para visualizar as observações e previsões meteorológicas.

Para alterar o mapa : clique nos botões verdes com uma cruz preta para aumentar o zoom; no botão verde com uma pitada de zoom; ou nas setas verdes para mapas adjacentes.


METAR-TAF: